Gordon V.sr. — WDB8505 — position and weather

sailwx.info

Track history (hours):
 
Tides and Currents Weather Stations Pressure Air Temp Water Temp Dewpoint Dewpoint Depression Visibility Wind Speed Wind Dir Waves Ship Positions

Gordon V.sr.

Owner: B&G TOWING L.L.C., Lafitte, LA. More information available from US FCC via Universal Licensing System and Coast Guard Vessel Documentation Center.

Last reported at 2015-Aug-31 19:33 UTC. Time now 2015-Aug-31 19:53 UTC.
Position N 29°33' W 090°53'.

MMSI: 365910942.

Date/timePositionNaut miles runAvg speedWind from/ knotsBaromVisibWave heightAir tempDewpointWater temp
2015-Aug-31 19:33N 29°33' W 090°53'4 3.5
2015-Aug-31 18:33N 29°32' W 090°49'4 3.6
2015-Aug-31 17:33N 29°33' W 090°45'3 3.3
2015-Aug-31 16:33N 29°35' W 090°43'2 1.8
2015-Aug-31 15:33N 29°37' W 090°42'2 2.0
2015-Aug-31 14:33N 29°36' W 090°40'3 2.7
2015-Aug-31 13:33N 29°35' W 090°37'3 3.1
2015-Aug-31 12:33N 29°34' W 090°34'4 3.6
2015-Aug-31 11:33N 29°34' W 090°30'6 3.8
2015-Aug-31 10:06N 29°33' W 090°23'3 3.7
2015-Aug-31 09:22N 29°36' W 090°22'10 0.2
2015-Aug-29 12:33N 29°34' W 090°33'4 3.8
2015-Aug-29 11:33N 29°35' W 090°37'3 2.8
2015-Aug-29 10:33N 29°36' W 090°40'2 2.1
2015-Aug-29 09:33N 29°35' W 090°43'3 2.7
2015-Aug-29 08:33N 29°34' W 090°45'3 3.0
2015-Aug-29 07:33N 29°32' W 090°48'5 4.5
2015-Aug-29 06:31N 29°33' W 090°53'2 0.1
2015-Aug-27 20:22N 29°32' W 090°51'4 4.4
2015-Aug-27 19:33N 29°32' W 090°47'4 3.7
2015-Aug-27 18:33N 29°34' W 090°43'2 1.7
2015-Aug-27 17:33N 29°36' W 090°43'0 0.0
2015-Aug-27 16:33N 29°36' W 090°43'0 0.0
2015-Aug-27 15:33N 29°36' W 090°43'1 0.8
2015-Aug-27 14:33N 29°37' W 090°42'4 4.0
2015-Aug-27 13:33N 29°35' W 090°38'4 3.8
2015-Aug-27 12:33N 29°34' W 090°34'10 3.1
2015-Aug-27 09:26N 29°35' W 090°23'3 1.7
2015-Aug-27 07:29N 29°37' W 090°21'19 3.0
2015-Aug-27 01:10N 29°49' W 090°04'3 4.3
2015-Aug-27 00:29N 29°51' W 090°01'5 2.6
2015-Aug-26 22:33N 29°55' W 089°58'2 1.6
2015-Aug-26 21:32N 29°56' W 089°59'0 0.0
2015-Aug-26 20:28N 29°56' W 089°59'0 0.0
2015-Aug-26 19:32N 29°56' W 089°59'1 1.1
2015-Aug-26 18:11N 29°57' W 090°01'1 2.3
2015-Aug-26 17:33N 29°56' W 089°59'2 0.2
2015-Aug-26 10:25N 29°57' W 090°01'0 0.0
2015-Aug-26 09:33N 29°57' W 090°01'0 0.0
2015-Aug-26 08:33N 29°57' W 090°01'0 0.0
2015-Aug-26 07:31N 29°57' W 090°01'0 0.0
2015-Aug-26 06:10N 29°57' W 090°01'0 0.2
2015-Aug-26 05:28N 29°57' W 090°01'0 0.1
2015-Aug-26 04:33N 29°57' W 090°01'0 0.1
2015-Aug-26 03:32N 29°57' W 090°01'0 0.4
2015-Aug-26 02:22N 29°57' W 090°01'36 1.2
2015-Aug-24 21:31N 29°34' W 090°32'3 3.2
2015-Aug-24 20:33N 29°35' W 090°36'3 3.4
2015-Aug-24 19:33N 29°36' W 090°39'3 2.9
2015-Aug-24 18:33N 29°36' W 090°43'3 2.5
2015-Aug-24 17:33N 29°34' W 090°44'2 2.0
2015-Aug-24 16:33N 29°32' W 090°46'4 4.1
2015-Aug-24 15:33N 29°32' W 090°50'  
Track history (hours):
 
Tides and Currents Weather Stations Pressure Air Temp Water Temp Dewpoint Dewpoint Depression Visibility Wind Speed Wind Dir Waves Ship Positions

Gordon V.sr.

Owner: B&G TOWING L.L.C., Lafitte, LA. More information available from US FCC via Universal Licensing System and Coast Guard Vessel Documentation Center.

Last reported at 2015-Aug-31 19:33 UTC. Time now 2015-Aug-31 19:53 UTC.
Position N 29°33' W 090°53'.

MMSI: 365910942.

Date/timePositionNaut miles runAvg speedWind from/ knotsBaromVisibWave heightAir tempDewpointWater temp
2015-Aug-31 19:33N 29°33' W 090°53'4 3.5
2015-Aug-31 18:33N 29°32' W 090°49'4 3.6
2015-Aug-31 17:33N 29°33' W 090°45'3 3.3
2015-Aug-31 16:33N 29°35' W 090°43'2 1.8
2015-Aug-31 15:33N 29°37' W 090°42'2 2.0
2015-Aug-31 14:33N 29°36' W 090°40'3 2.7
2015-Aug-31 13:33N 29°35' W 090°37'3 3.1
2015-Aug-31 12:33N 29°34' W 090°34'4 3.6
2015-Aug-31 11:33N 29°34' W 090°30'6 3.8
2015-Aug-31 10:06N 29°33' W 090°23'3 3.7
2015-Aug-31 09:22N 29°36' W 090°22'10 0.2
2015-Aug-29 12:33N 29°34' W 090°33'4 3.8
2015-Aug-29 11:33N 29°35' W 090°37'3 2.8
2015-Aug-29 10:33N 29°36' W 090°40'2 2.1
2015-Aug-29 09:33N 29°35' W 090°43'3 2.7
2015-Aug-29 08:33N 29°34' W 090°45'3 3.0
2015-Aug-29 07:33N 29°32' W 090°48'5 4.5
2015-Aug-29 06:31N 29°33' W 090°53'2 0.1
2015-Aug-27 20:22N 29°32' W 090°51'4 4.4
2015-Aug-27 19:33N 29°32' W 090°47'4 3.7
2015-Aug-27 18:33N 29°34' W 090°43'2 1.7
2015-Aug-27 17:33N 29°36' W 090°43'0 0.0
2015-Aug-27 16:33N 29°36' W 090°43'0 0.0
2015-Aug-27 15:33N 29°36' W 090°43'1 0.8
2015-Aug-27 14:33N 29°37' W 090°42'4 4.0
2015-Aug-27 13:33N 29°35' W 090°38'4 3.8
2015-Aug-27 12:33N 29°34' W 090°34'10 3.1
2015-Aug-27 09:26N 29°35' W 090°23'3 1.7
2015-Aug-27 07:29N 29°37' W 090°21'19 3.0
2015-Aug-27 01:10N 29°49' W 090°04'3 4.3
2015-Aug-27 00:29N 29°51' W 090°01'5 2.6
2015-Aug-26 22:33N 29°55' W 089°58'2 1.6
2015-Aug-26 21:32N 29°56' W 089°59'0 0.0
2015-Aug-26 20:28N 29°56' W 089°59'0 0.0
2015-Aug-26 19:32N 29°56' W 089°59'1 1.1
2015-Aug-26 18:11N 29°57' W 090°01'1 2.3
2015-Aug-26 17:33N 29°56' W 089°59'2 0.2
2015-Aug-26 10:25N 29°57' W 090°01'0 0.0
2015-Aug-26 09:33N 29°57' W 090°01'0 0.0
2015-Aug-26 08:33N 29°57' W 090°01'0 0.0
2015-Aug-26 07:31N 29°57' W 090°01'0 0.0
2015-Aug-26 06:10N 29°57' W 090°01'0 0.2
2015-Aug-26 05:28N 29°57' W 090°01'0 0.1
2015-Aug-26 04:33N 29°57' W 090°01'0 0.1
2015-Aug-26 03:32N 29°57' W 090°01'0 0.4
2015-Aug-26 02:22N 29°57' W 090°01'36 1.2
2015-Aug-24 21:31N 29°34' W 090°32'3 3.2
2015-Aug-24 20:33N 29°35' W 090°36'3 3.4
2015-Aug-24 19:33N 29°36' W 090°39'3 2.9
2015-Aug-24 18:33N 29°36' W 090°43'3 2.5
2015-Aug-24 17:33N 29°34' W 090°44'2 2.0
2015-Aug-24 16:33N 29°32' W 090°46'4 4.1
2015-Aug-24 15:33N 29°32' W 090°50'  

Dump ship's entire track history